CheckWX is a tool to help pilots better visualize weather data.  It is not intended as a substitute for an official pre-flight weather briefing.

00:42:02 UTC

SCEL TAF
Comodoro Arturo Merino Benítez International Airport Airport
Santiago, Chile
TAF SCEL 100412Z 1006/1106 23004KT 7000 NSC TX16/1018Z TN05/1006Z TEMPO 1010/1014 VRB02KT 3000 BR TEMPO 1012/1014 0800 BCFG SCT004 BECMG 1015/1017 18008KT BECMG 1018/1020 20010KT BECMG 1101/1103 18004KT

Jul-10@
06:00 UTC

Jul-10 @ 06:00 UTC

Jul-10@
15:00 UTC

Jul-10 @ 15:00 UTC

TAF SCEL 100412Z 1006/1106 23004KT 7000 NSC TX16/1018Z TN05/1006Z

Expired

Wind
  • 230° at 4 KTS
Cloud Levels
  • No significant clouds

Jul-10@
10:00 UTC

Jul-10 @ 10:00 UTC

Jul-10@
14:00 UTC

Jul-10 @ 14:00 UTC

TEMPO 1010/1014 VRB02KT 3000 BR

Expired

Wind
  • Variable at 2 KTS
Conditions
Mist
Cloud Levels

Jul-10@
12:00 UTC

Jul-10 @ 12:00 UTC

Jul-10@
14:00 UTC

Jul-10 @ 14:00 UTC

TEMPO 1012/1014 0800 BCFG SCT004

Expired

Conditions
Patches of Fog
Cloud Levels
  • Scattered at 400' AGL

Jul-10@
15:00 UTC

Jul-10 @ 15:00 UTC

Jul-10@
18:00 UTC

Jul-10 @ 18:00 UTC

BECMG 1015/1017 18008KT

Expired

Wind
  • 180° at 8 KTS
Cloud Levels
  • No significant clouds

Jul-10@
18:00 UTC

Jul-10 @ 18:00 UTC

Jul-11@
01:00 UTC

Jul-11 @ 01:00 UTC

BECMG 1018/1020 20010KT

Becoming

Becoming Conditions expected by Fri, Jul 10, 2020 @ 20:00 UTC

Wind
  • 200° at 10 KTS
Cloud Levels
  • No significant clouds

Jul-11@
01:00 UTC

Jul-11 @ 01:00 UTC

Jul-11@
06:00 UTC

Jul-11 @ 06:00 UTC

BECMG 1101/1103 18004KT

Becoming

Becoming Conditions expected by Sat, Jul 11, 2020 @ 03:00 UTC

Wind
  • 180° at 4 KTS
Cloud Levels
  • No significant clouds